Time;durP1;ratioP1;P1;durP2;ratioP2;P2;SDS_P1;SDS_P2;PMS_P1;PMS_P2;Temp;Humidity;BMP_temperature;BMP_pressure;BME280_temperature;BME280_humidity;BME280_pressure;Samples;Min_cycle;Max_cycle;Signal;HPM_P1;HPM_P2
2021/01/17 00:00:32;;;;;;;51.67;30.90;;;-0.30;95.30;;;;;;6199818;28;20129;-77
2021/01/17 00:03:34;;;;;;;49.10;32.27;;;-0.30;95.60;;;;;;6200463;28;20042;-77
2021/01/17 00:06:35;;;;;;;46.60;30.57;;;-0.30;95.70;;;;;;6200222;28;20137;-77
2021/01/17 00:09:36;;;;;;;54.53;31.03;;;-0.30;95.60;;;;;;6199900;28;20046;-77
2021/01/17 00:12:39;;;;;;;48.07;34.10;;;-0.30;95.60;;;;;;6200207;28;20097;-77
2021/01/17 00:15:41;;;;;;;46.07;30.13;;;-0.30;95.80;;;;;;6200019;28;20050;-77
2021/01/17 00:18:42;;;;;;;45.43;31.03;;;-0.30;95.70;;;;;;6199543;28;20078;-77
2021/01/17 00:21:44;;;;;;;55.07;32.47;;;-0.30;95.80;;;;;;6199589;28;20676;-77
2021/01/17 00:24:45;;;;;;;55.33;32.77;;;-0.40;95.90;;;;;;6200402;28;20050;-77
2021/01/17 00:27:51;;;;;;;53.63;32.77;;;-0.30;96.20;;;;;;6199201;28;20078;-76
2021/01/17 00:30:52;;;;;;;52.27;33.47;;;-0.30;96.10;;;;;;6199556;28;20586;-77
2021/01/17 00:33:53;;;;;;;48.60;28.80;;;-0.30;96.00;;;;;;6199592;28;20061;-77
2021/01/17 00:36:55;;;;;;;55.60;32.47;;;-0.30;96.00;;;;;;6199237;28;20526;-77
2021/01/17 00:39:56;;;;;;;49.93;32.03;;;-0.30;96.20;;;;;;6198809;28;20070;-77
2021/01/17 00:42:58;;;;;;;55.00;33.87;;;-0.30;96.00;;;;;;6199149;28;20046;-76
2021/01/17 00:46:03;;;;;;;57.27;34.63;;;-0.30;96.30;;;;;;6199331;28;20042;-77
2021/01/17 00:49:05;;;;;;;51.33;31.90;;;-0.30;96.40;;;;;;6198931;28;20051;-76
2021/01/17 00:52:06;;;;;;;63.23;34.90;;;-0.30;96.40;;;;;;6199266;28;20149;-77
2021/01/17 00:55:09;;;;;;;61.83;33.27;;;-0.30;96.40;;;;;;6198799;28;20503;-77
2021/01/17 00:58:12;;;;;;;54.20;33.57;;;-0.40;96.40;;;;;;6198412;28;20416;-77
2021/01/17 01:01:13;;;;;;;54.37;32.27;;;-0.40;96.60;;;;;;6199212;28;20054;-77
2021/01/17 01:04:15;;;;;;;63.97;34.17;;;-0.40;96.60;;;;;;6198480;28;20467;-77
2021/01/17 01:07:16;;;;;;;53.90;33.87;;;-0.40;96.80;;;;;;6198934;28;20185;-77
2021/01/17 01:10:19;;;;;;;58.93;35.03;;;-0.40;96.80;;;;;;6192336;28;20043;-76
2021/01/17 01:13:21;;;;;;;61.57;34.13;;;-0.40;96.80;;;;;;6175134;28;20047;-77
2021/01/17 01:16:22;;;;;;;55.93;37.73;;;-0.50;96.80;;;;;;6196847;28;20148;-77
2021/01/17 01:19:24;;;;;;;58.33;33.17;;;-0.50;96.90;;;;;;6198175;28;20049;-77
2021/01/17 01:22:25;;;;;;;62.37;37.33;;;-0.50;97.00;;;;;;6198319;28;20516;-77
2021/01/17 01:25:26;;;;;;;54.20;34.77;;;-0.50;97.10;;;;;;6198894;28;20137;-77
2021/01/17 01:28:28;;;;;;;58.63;34.13;;;-0.50;97.30;;;;;;6197812;28;20073;-77
2021/01/17 01:31:30;;;;;;;62.53;34.20;;;-0.50;97.10;;;;;;6198120;28;20050;-77
2021/01/17 01:34:31;;;;;;;69.27;36.53;;;-0.50;97.30;;;;;;6198364;28;20307;-77
2021/01/17 01:37:35;;;;;;;57.53;36.33;;;-0.50;97.60;;;;;;6197819;28;20528;-77
2021/01/17 01:40:36;;;;;;;58.37;36.47;;;-0.40;97.50;;;;;;6198570;28;20078;-77
2021/01/17 01:43:39;;;;;;;63.20;38.37;;;-0.40;97.50;;;;;;6197863;28;20057;-77
2021/01/17 01:46:41;;;;;;;58.40;35.33;;;-0.50;97.50;;;;;;6197577;28;20093;-77
2021/01/17 01:49:43;;;;;;;58.57;35.27;;;-0.40;97.70;;;;;;6197502;28;20762;-77
2021/01/17 01:52:44;;;;;;;54.27;34.43;;;-0.50;97.70;;;;;;6198268;28;20057;-77
2021/01/17 01:55:46;;;;;;;61.10;36.17;;;-0.40;97.90;;;;;;6197768;28;20622;-77
2021/01/17 01:58:49;;;;;;;59.23;36.27;;;-0.40;97.80;;;;;;6194497;28;20046;-76
2021/01/17 02:01:50;;;;;;;59.00;33.80;;;-0.40;97.80;;;;;;6198092;28;20050;-77
2021/01/17 02:04:52;;;;;;;51.80;33.77;;;-0.40;97.70;;;;;;6197851;28;20558;-77
2021/01/17 02:08:16;;;;;;;55.57;32.60;;;-0.30;97.80;;;;;;6197281;28;20070;-77
2021/01/17 02:11:26;;;;;;;54.17;32.23;;;-0.30;97.80;;;;;;6205091;22;20043;-77
2021/01/17 02:14:40;;;;;;;62.10;33.50;;;-0.30;97.80;;;;;;6197433;28;20130;-77
2021/01/17 02:17:42;;;;;;;55.80;33.00;;;-0.30;97.90;;;;;;6197655;28;20165;-78
2021/01/17 02:20:45;;;;;;;55.13;35.07;;;-0.20;98.00;;;;;;6197737;28;20061;-78
2021/01/17 02:23:52;;;;;;;51.10;33.23;;;-0.20;97.90;;;;;;6197467;28;20044;-77
2021/01/17 02:26:54;;;;;;;56.70;34.67;;;-0.10;97.70;;;;;;6197433;28;20149;-77
2021/01/17 02:29:58;;;;;;;57.70;32.97;;;-0.10;97.80;;;;;;6197111;28;20092;-77
2021/01/17 02:33:03;;;;;;;62.17;31.90;;;-0.10;97.70;;;;;;6198335;28;20137;-77
2021/01/17 02:36:18;;;;;;;52.63;34.20;;;-0.10;97.60;;;;;;6197266;28;20105;-78
2021/01/17 02:39:26;;;;;;;52.83;32.13;;;0.00;97.50;;;;;;6197089;28;20062;-77
2021/01/17 02:42:29;;;;;;;52.67;31.67;;;0.00;97.40;;;;;;6198386;28;20129;-77
2021/01/17 02:45:31;;;;;;;55.60;34.23;;;0.00;97.40;;;;;;6197464;28;20082;-77
2021/01/17 02:48:32;;;;;;;49.90;30.60;;;0.00;97.40;;;;;;6197374;28;20050;-77
2021/01/17 02:51:33;;;;;;;57.77;35.03;;;0.10;97.40;;;;;;6197571;28;20742;-77
2021/01/17 02:54:37;;;;;;;57.97;35.97;;;0.10;97.40;;;;;;6197187;28;20539;-77
2021/01/17 02:57:42;;;;;;;52.07;33.27;;;0.10;97.30;;;;;;6197139;28;20222;-77
2021/01/17 03:00:47;;;;;;;53.17;34.10;;;0.10;97.40;;;;;;6197393;28;20047;-77
2021/01/17 03:03:52;;;;;;;54.40;31.23;;;0.10;97.30;;;;;;6196844;28;20503;-77
2021/01/17 03:06:53;;;;;;;59.80;31.80;;;0.10;97.20;;;;;;6196805;28;20050;-77
2021/01/17 03:09:55;;;;;;;53.17;31.60;;;0.10;97.20;;;;;;6198041;28;20046;-77
2021/01/17 03:13:01;;;;;;;56.33;33.47;;;0.10;97.20;;;;;;6203360;28;20500;-77
2021/01/17 03:16:03;;;;;;;57.50;32.93;;;0.10;97.30;;;;;;6202654;28;20055;-77
2021/01/17 03:19:04;;;;;;;51.70;29.07;;;0.10;97.40;;;;;;6201680;28;20042;-77
2021/01/17 03:22:05;;;;;;;47.27;30.93;;;0.10;97.30;;;;;;6202587;28;20085;-78
2021/01/17 03:25:07;;;;;;;54.10;32.63;;;0.10;97.30;;;;;;6202726;28;20539;-78
2021/01/17 03:28:09;;;;;;;52.03;30.50;;;0.20;97.20;;;;;;6202123;28;20051;-78
2021/01/17 03:31:10;;;;;;;54.13;31.23;;;0.20;97.20;;;;;;6202352;28;20527;-78
2021/01/17 03:34:12;;;;;;;54.23;32.90;;;0.20;97.20;;;;;;6202657;28;20090;-77
2021/01/17 03:37:13;;;;;;;46.30;29.77;;;0.20;97.30;;;;;;6202691;28;20516;-77
2021/01/17 03:40:15;;;;;;;50.93;29.80;;;0.20;97.30;;;;;;6200718;28;20050;-78
2021/01/17 03:43:17;;;;;;;49.00;29.60;;;0.20;97.50;;;;;;6201517;28;20472;-77
2021/01/17 03:46:18;;;;;;;45.70;31.03;;;0.20;97.30;;;;;;6201670;28;20125;-78
2021/01/17 03:49:20;;;;;;;42.57;28.60;;;0.20;97.20;;;;;;6201655;28;20054;-78
2021/01/17 03:52:21;;;;;;;47.17;30.50;;;0.20;97.40;;;;;;6201391;28;20053;-78
2021/01/17 03:55:23;;;;;;;48.70;29.33;;;0.20;97.50;;;;;;6201680;28;20527;-78
2021/01/17 03:58:25;;;;;;;55.13;30.60;;;0.20;97.40;;;;;;6201796;28;20049;-78
2021/01/17 04:01:26;;;;;;;52.27;30.97;;;0.20;97.40;;;;;;6201940;28;20053;-78
2021/01/17 04:04:27;;;;;;;48.27;30.63;;;0.20;97.40;;;;;;6201207;28;20046;-78
2021/01/17 04:07:29;;;;;;;47.87;28.27;;;0.20;97.30;;;;;;6201215;28;20566;-77
2021/01/17 04:10:30;;;;;;;47.10;29.37;;;0.20;97.30;;;;;;6200903;28;20049;-77
2021/01/17 04:13:32;;;;;;;46.57;29.93;;;0.20;97.30;;;;;;6201384;28;20495;-78
2021/01/17 04:16:34;;;;;;;52.53;29.00;;;0.20;97.40;;;;;;6201696;28;20059;-78
2021/01/17 04:19:35;;;;;;;47.53;28.83;;;0.20;97.40;;;;;;6200869;28;20603;-77
2021/01/17 04:22:37;;;;;;;42.33;28.03;;;0.20;97.40;;;;;;6199631;28;20046;-78
2021/01/17 04:25:38;;;;;;;51.00;29.13;;;0.20;97.30;;;;;;6200420;28;20058;-78
2021/01/17 04:28:43;;;;;;;49.47;28.80;;;0.20;97.40;;;;;;6201056;28;20081;-78
2021/01/17 04:31:45;;;;;;;44.07;29.83;;;0.30;97.40;;;;;;6201024;28;20133;-77
2021/01/17 04:34:46;;;;;;;47.40;29.43;;;0.30;97.40;;;;;;6199807;28;20074;-77
2021/01/17 04:37:47;;;;;;;52.13;29.43;;;0.30;97.40;;;;;;6199540;28;20065;-78
2021/01/17 04:40:48;;;;;;;45.60;28.73;;;0.30;97.40;;;;;;6200202;28;20408;-77
2021/01/17 04:43:56;;;;;;;50.40;28.53;;;0.30;97.40;;;;;;6199324;28;20050;-77
2021/01/17 04:46:59;;;;;;;45.85;29.63;;;0.30;97.40;;;;;;6199635;28;20051;-77
2021/01/17 04:50:04;;;;;;;44.47;26.40;;;0.30;97.50;;;;;;6199414;28;20575;-77
2021/01/17 04:53:07;;;;;;;42.73;28.73;;;0.30;97.50;;;;;;6199855;28;20467;-77
2021/01/17 04:56:18;;;;;;;33.40;23.50;;;0.30;97.50;;;;;;6199323;28;20169;-77
2021/01/17 04:59:29;;;;;;;39.97;27.20;;;0.40;97.50;;;;;;6198848;28;20053;-77
2021/01/17 05:02:35;;;;;;;42.37;26.17;;;0.40;97.50;;;;;;6199199;28;20046;-77
2021/01/17 05:05:46;;;;;;;38.93;24.30;;;0.40;97.50;;;;;;6198550;28;20076;-77
2021/01/17 05:08:52;;;;;;;45.40;25.30;;;0.40;97.50;;;;;;6199154;28;20050;-77
2021/01/17 05:11:54;;;;;;;43.33;24.47;;;0.40;97.60;;;;;;6198635;28;20188;-77
2021/01/17 05:14:56;;;;;;;34.80;23.87;;;0.40;97.70;;;;;;6198616;28;20540;-77
2021/01/17 05:18:02;;;;;;;39.43;24.70;;;0.40;97.80;;;;;;6198663;28;20058;-77
2021/01/17 05:21:04;;;;;;;38.57;23.10;;;0.50;97.90;;;;;;6199173;28;20050;-77
2021/01/17 05:24:10;;;;;;;39.43;23.20;;;0.50;98.00;;;;;;6198892;28;20046;-77
2021/01/17 05:27:12;;;;;;;37.07;20.90;;;0.50;98.00;;;;;;6199082;28;20176;-77
2021/01/17 05:30:15;;;;;;;38.50;27.33;;;0.50;98.10;;;;;;6198887;28;20097;-77
2021/01/17 05:33:24;;;;;;;33.67;22.07;;;0.60;98.20;;;;;;6198528;28;20461;-77
2021/01/17 05:36:27;;;;;;;46.10;31.33;;;0.60;98.30;;;;;;6197917;28;20050;-77
2021/01/17 05:39:28;;;;;;;30.37;19.30;;;0.60;98.40;;;;;;6197708;28;20042;-77
2021/01/17 05:42:31;;;;;;;28.97;19.70;;;0.70;98.60;;;;;;6198060;28;20558;-78
2021/01/17 05:45:33;;;;;;;33.40;25.03;;;0.60;98.70;;;;;;6198703;28;20057;-77
2021/01/17 05:48:34;;;;;;;44.50;35.77;;;0.70;98.80;;;;;;6198072;28;20137;-77
2021/01/17 05:51:36;;;;;;;40.43;26.53;;;0.70;99.00;;;;;;6198361;28;20057;-77
2021/01/17 05:54:38;;;;;;;56.73;38.53;;;0.70;99.20;;;;;;6198106;28;20049;-77
2021/01/17 05:57:39;;;;;;;33.93;22.33;;;0.70;99.30;;;;;;6198107;28;20054;-77
2021/01/17 06:00:41;;;;;;;33.10;20.47;;;0.70;99.50;;;;;;6198507;28;20496;-77
2021/01/17 06:03:49;;;;;;;31.73;18.03;;;0.70;99.60;;;;;;6198970;28;20050;-78
2021/01/17 06:06:52;;;;;;;;;;;0.70;99.70;;;;;;6198772;28;20589;-78
2021/01/17 06:09:58;;;;;;;28.80;17.87;;;0.80;99.90;;;;;;6197746;28;19921;-79
2021/01/17 06:13:01;;;;;;;34.43;22.00;;;0.80;99.90;;;;;;6199345;28;20401;-78
2021/01/17 06:16:22;;;;;;;30.57;19.87;;;0.70;99.90;;;;;;6197850;28;20053;-78
2021/01/17 06:19:31;;;;;;;31.47;18.90;;;0.90;99.90;;;;;;6197428;28;20058;-78
2021/01/17 06:22:33;;;;;;;30.90;19.07;;;0.90;99.90;;;;;;6200131;28;20125;-78
2021/01/17 06:25:34;;;;;;;27.07;18.20;;;0.80;99.90;;;;;;6198997;28;20133;-78
2021/01/17 06:28:40;;;;;;;29.83;20.17;;;0.80;99.90;;;;;;6198733;28;20141;-78
2021/01/17 06:31:42;;;;;;;32.83;19.50;;;0.90;99.90;;;;;;6198739;28;20104;-78
2021/01/17 06:34:45;;;;;;;34.80;19.10;;;0.90;99.90;;;;;;6199167;28;20054;-78
2021/01/17 06:37:47;;;;;;;28.67;19.33;;;0.90;99.90;;;;;;6199197;28;20057;-78
2021/01/17 06:40:49;;;;;;;35.03;21.93;;;0.90;99.90;;;;;;6197742;28;20092;-78
2021/01/17 06:43:53;;;;;;;37.30;22.33;;;0.80;99.90;;;;;;6197573;28;20053;-78
2021/01/17 06:46:56;;;;;;;37.47;21.03;;;0.90;99.90;;;;;;6202194;28;20419;-78
2021/01/17 06:49:57;;;;;;;33.33;20.83;;;0.90;99.90;;;;;;6202251;28;20047;-78
2021/01/17 06:52:58;;;;;;;37.70;22.10;;;0.90;99.90;;;;;;6203517;28;20053;-78
2021/01/17 06:56:14;;;;;;;40.53;25.47;;;0.90;99.90;;;;;;6203148;28;20571;-79
2021/01/17 06:59:29;;;;;;;43.50;22.60;;;1.00;99.90;;;;;;6202594;28;20038;-79
2021/01/17 07:02:38;;;;;;;35.10;20.10;;;1.00;99.90;;;;;;6202052;28;20455;-79
2021/01/17 07:06:08;;;;;;;38.53;22.13;;;1.00;99.90;;;;;;6192195;28;20050;-79
2021/01/17 07:09:17;;;;;;;34.90;21.67;;;1.00;99.90;;;;;;6201922;28;20050;-78
2021/01/17 07:12:31;;;;;;;31.10;17.47;;;1.10;99.90;;;;;;6204234;28;20157;-78
2021/01/17 07:15:34;;;;;;;30.87;20.73;;;1.00;99.90;;;;;;6202642;28;20411;-78
2021/01/17 07:18:37;;;;;;;28.27;18.57;;;1.00;99.90;;;;;;6201279;28;20050;-78
2021/01/17 07:21:41;;;;;;;28.20;18.37;;;1.00;99.90;;;;;;6201459;28;20050;-79
2021/01/17 07:24:47;;;;;;;36.57;19.50;;;1.00;99.90;;;;;;6202141;28;20085;-78
2021/01/17 07:28:06;;;;;;;32.00;20.03;;;1.00;99.90;;;;;;6201366;28;20046;-78
2021/01/17 07:31:17;;;;;;;29.00;17.33;;;1.00;99.90;;;;;;6201022;28;20065;-78
2021/01/17 07:34:21;;;;;;;38.27;20.77;;;1.00;99.90;;;;;;6201958;28;20043;-78
2021/01/17 07:37:27;;;;;;;36.47;21.37;;;1.00;99.90;;;;;;6202579;28;20054;-78
2021/01/17 07:43:49;;;;;;;40.13;21.20;;;1.10;99.90;;;;;;6201850;28;20101;-78
2021/01/17 07:46:58;;;;;;;36.33;23.80;;;1.10;99.90;;;;;;6201624;28;20518;-78
2021/01/17 07:50:00;;;;;;;30.27;20.27;;;1.20;99.90;;;;;;6201229;28;20046;-78
2021/01/17 07:53:03;;;;;;;36.00;19.43;;;1.20;99.90;;;;;;6201886;28;20111;-78
2021/01/17 07:56:08;;;;;;;39.80;22.03;;;1.10;99.90;;;;;;6199849;28;20126;-78
2021/01/17 07:59:10;;;;;;;41.20;21.20;;;1.10;99.90;;;;;;6200621;28;20466;-78
2021/01/17 08:02:24;;;;;;;34.73;21.60;;;1.20;99.90;;;;;;6201063;28;20046;-78
2021/01/17 08:06:00;;;;;;;35.33;20.40;;;1.30;99.90;;;;;;6201387;28;20058;-78
2021/01/17 08:09:02;;;;;;;41.80;26.97;;;1.20;99.90;;;;;;6166692;23;20043;-76
2021/01/17 08:12:03;;;;;;;46.53;27.80;;;1.20;99.90;;;;;;6177077;28;20074;-76
2021/01/17 08:15:30;;;;;;;41.67;22.67;;;1.20;99.90;;;;;;6176787;28;20046;-76
2021/01/17 08:18:34;;;;;;;72.63;53.33;;;1.20;99.90;;;;;;6176899;28;20086;-77
2021/01/17 08:21:37;;;;;;;96.77;67.27;;;1.20;99.90;;;;;;6176683;28;20053;-76
2021/01/17 08:24:38;;;;;;;64.10;36.13;;;1.20;99.90;;;;;;6176836;28;20503;-76
2021/01/17 08:27:41;;;;;;;32.63;22.50;;;2.00;99.90;;;;;;6173728;28;20047;-77
2021/01/17 08:30:42;;;;;;;28.67;23.47;;;3.20;99.90;;;;;;6177073;28;20077;-77
2021/01/17 08:33:43;;;;;;;26.97;19.27;;;3.10;99.90;;;;;;6177045;28;20110;-77
2021/01/17 08:36:46;;;;;;;23.47;16.00;;;2.60;99.90;;;;;;6177302;28;20086;-77
2021/01/17 08:39:51;;;;;;;22.47;15.13;;;2.30;99.90;;;;;;6176368;28;20520;-77
2021/01/17 08:42:54;;;;;;;20.90;15.47;;;2.00;99.90;;;;;;6176878;28;20058;-77
2021/01/17 08:45:55;;;;;;;29.97;17.07;;;1.90;99.90;;;;;;6176377;28;20043;-76
2021/01/17 08:48:56;;;;;;;35.23;21.10;;;1.80;99.90;;;;;;6177112;28;20051;-77
2021/01/17 08:52:01;;;;;;;28.77;18.23;;;1.70;99.90;;;;;;6176394;28;20074;-77
2021/01/17 08:55:03;;;;;;;23.33;16.20;;;1.60;99.90;;;;;;6175921;28;20050;-77
2021/01/17 08:58:04;;;;;;;25.90;14.73;;;1.60;99.90;;;;;;6176292;28;20046;-78
2021/01/17 09:01:07;;;;;;;28.47;17.23;;;1.60;99.90;;;;;;6176610;28;20042;-78
2021/01/17 09:04:09;;;;;;;30.00;18.17;;;1.60;99.90;;;;;;6176452;28;20051;-77
2021/01/17 09:07:32;;;;;;;31.47;17.63;;;1.50;99.90;;;;;;6175388;28;20046;-77
2021/01/17 09:10:33;;;;;;;29.03;19.47;;;1.60;99.90;;;;;;6175531;28;20147;-77
2021/01/17 09:13:35;;;;;;;26.27;16.43;;;1.50;99.90;;;;;;6175579;28;20142;-77
2021/01/17 09:16:41;;;;;;;29.27;17.93;;;1.50;99.90;;;;;;6176183;28;20133;-77
2021/01/17 09:19:43;;;;;;;28.27;17.97;;;1.50;99.90;;;;;;6175325;28;20432;-77
2021/01/17 09:22:49;;;;;;;72.13;39.97;;;1.50;99.90;;;;;;6175730;28;20126;-77
2021/01/17 09:25:56;;;;;;;61.83;38.13;;;1.50;99.90;;;;;;6175951;28;20051;-77
2021/01/17 09:28:58;;;;;;;28.75;19.02;;;1.50;99.90;;;;;;6175963;28;20058;-77
2021/01/17 09:32:03;;;;;;;29.50;18.17;;;1.50;99.90;;;;;;6177082;28;20420;-77
2021/01/17 09:35:06;;;;;;;33.33;20.17;;;1.50;99.90;;;;;;6174708;28;20054;-77
2021/01/17 09:38:16;;;;;;;34.33;19.27;;;1.50;99.90;;;;;;6174960;28;20583;-77
2021/01/17 09:41:25;;;;;;;30.73;18.90;;;1.50;99.90;;;;;;6176550;28;20528;-77
2021/01/17 09:44:27;;;;;;;31.07;18.77;;;1.50;99.90;;;;;;6175756;28;20058;-77
2021/01/17 09:47:30;;;;;;;30.53;17.23;;;1.60;99.90;;;;;;6174528;28;20054;-77
2021/01/17 09:50:32;;;;;;;31.27;17.93;;;1.60;99.90;;;;;;6175303;28;20425;-77
2021/01/17 09:53:34;;;;;;;30.60;18.40;;;1.60;99.90;;;;;;6176537;28;20138;-77
2021/01/17 09:56:39;;;;;;;30.20;18.37;;;1.60;99.90;;;;;;6175760;28;20133;-77
2021/01/17 09:59:41;;;;;;;27.07;16.03;;;1.60;99.90;;;;;;6175444;28;20135;-77
2021/01/17 10:02:44;;;;;;;28.00;17.70;;;1.70;99.90;;;;;;6175282;28;20046;-77
2021/01/17 10:05:45;;;;;;;30.27;18.37;;;1.70;99.90;;;;;;6175069;28;20427;-78
2021/01/17 10:08:47;;;;;;;30.17;17.67;;;1.80;99.90;;;;;;6175220;28;20055;-77
2021/01/17 10:11:56;;;;;;;30.43;17.50;;;1.70;99.90;;;;;;6175674;28;20134;-77
2021/01/17 10:14:58;;;;;;;29.97;18.50;;;1.80;99.90;;;;;;6174006;28;20125;-77
2021/01/17 10:17:59;;;;;;;29.80;17.03;;;1.80;99.90;;;;;;6173820;28;20515;-78
2021/01/17 10:21:00;;;;;;;24.53;15.43;;;1.80;99.90;;;;;;6173619;28;20046;-77
2021/01/17 10:24:03;;;;;;;28.87;18.87;;;1.80;99.90;;;;;;6174072;28;20130;-77
2021/01/17 10:27:06;;;;;;;22.30;16.57;;;1.80;99.90;;;;;;6174098;28;20129;-78
2021/01/17 10:30:18;;;;;;;21.67;16.90;;;1.80;99.90;;;;;;6174603;28;20043;-77
2021/01/17 10:33:21;;;;;;;22.60;15.13;;;1.80;99.90;;;;;;6174756;28;20055;-77
2021/01/17 10:36:22;;;;;;;23.83;15.10;;;1.80;99.90;;;;;;6173933;28;20046;-78
2021/01/17 10:39:25;;;;;;;23.97;16.60;;;1.80;99.90;;;;;;6174679;28;20050;-78
2021/01/17 10:42:30;;;;;;;22.83;14.57;;;1.90;99.90;;;;;;6174003;28;20058;-77
2021/01/17 10:45:32;;;;;;;23.73;15.90;;;1.90;99.90;;;;;;6173946;28;20057;-77
2021/01/17 10:48:39;;;;;;;22.97;16.30;;;2.00;99.90;;;;;;6173895;28;20055;-78
2021/01/17 10:51:46;;;;;;;26.27;15.80;;;1.90;99.90;;;;;;6173431;28;20518;-78
2021/01/17 10:54:49;;;;;;;21.60;14.32;;;2.10;99.90;;;;;;6173644;28;20053;-77
2021/01/17 10:57:52;;;;;;;27.80;13.83;;;2.10;99.90;;;;;;6173802;28;20109;-77
2021/01/17 11:00:54;;;;;;;21.77;12.87;;;2.10;99.90;;;;;;6174147;28;20489;-78
2021/01/17 11:03:59;;;;;;;20.73;14.87;;;2.10;99.90;;;;;;6173882;28;20078;-77
2021/01/17 11:07:01;;;;;;;24.70;15.13;;;2.20;99.90;;;;;;6173400;28;20051;-77
2021/01/17 11:10:14;;;;;;;20.43;13.07;;;2.20;99.90;;;;;;6173799;28;20066;-77
2021/01/17 11:13:16;;;;;;;20.50;12.87;;;2.20;99.90;;;;;;6176399;28;20051;-77
2021/01/17 11:16:33;;;;;;;17.63;12.60;;;2.20;99.90;;;;;;6176396;28;20122;-77
2021/01/17 11:19:37;;;;;;;18.20;12.03;;;2.30;99.90;;;;;;6174030;28;20126;-77
2021/01/17 11:22:38;;;;;;;18.03;12.23;;;2.20;99.90;;;;;;6175452;28;20050;-77
2021/01/17 11:25:41;;;;;;;19.13;13.90;;;2.20;99.90;;;;;;6175613;28;20078;-77
2021/01/17 11:28:51;;;;;;;20.13;14.00;;;2.30;99.90;;;;;;6176200;28;20057;-77
2021/01/17 11:31:52;;;;;;;16.93;12.00;;;2.30;99.90;;;;;;6178448;28;20046;-78
2021/01/17 11:34:53;;;;;;;16.80;11.67;;;2.30;99.90;;;;;;6204018;28;20031;-77
2021/01/17 11:37:55;;;;;;;14.40;11.37;;;2.40;99.90;;;;;;6207789;28;20051;-77
2021/01/17 11:41:06;;;;;;;17.47;11.40;;;2.40;99.90;;;;;;6208547;28;20039;-77
2021/01/17 11:44:10;;;;;;;15.67;10.97;;;2.30;99.90;;;;;;6208196;28;20065;-77
2021/01/17 11:47:18;;;;;;;19.13;12.83;;;2.30;99.90;;;;;;6208256;28;20102;-77
2021/01/17 11:50:20;;;;;;;25.30;13.03;;;2.30;99.90;;;;;;6207763;28;20046;-77
2021/01/17 11:53:25;;;;;;;21.23;13.73;;;2.30;99.90;;;;;;6208233;28;20023;-77
2021/01/17 11:56:27;;;;;;;19.07;12.93;;;2.30;99.90;;;;;;6203731;28;20046;-77
2021/01/17 11:59:29;;;;;;;22.40;12.97;;;2.30;99.90;;;;;;6202864;28;20054;-77
2021/01/17 12:02:39;;;;;;;23.53;15.53;;;2.30;99.90;;;;;;6184980;28;20107;-77
2021/01/17 12:05:41;;;;;;;21.67;13.67;;;2.30;99.90;;;;;;6169391;28;20057;-76
2021/01/17 12:08:57;;;;;;;23.77;13.50;;;2.30;99.90;;;;;;6185257;28;20524;-77
2021/01/17 12:12:11;;;;;;;38.50;26.70;;;2.40;99.90;;;;;;6179822;28;20051;-77
2021/01/17 12:15:12;;;;;;;32.57;18.30;;;2.30;99.90;;;;;;6178566;28;20049;-77
2021/01/17 12:18:14;;;;;;;31.90;18.00;;;2.40;99.90;;;;;;6174404;28;20596;-77
2021/01/17 12:21:21;;;;;;;25.37;16.57;;;2.50;99.90;;;;;;6171403;28;20038;-77
2021/01/17 12:24:22;;;;;;;29.23;20.33;;;2.50;99.90;;;;;;6173206;28;20051;-77
2021/01/17 12:27:24;;;;;;;23.27;14.27;;;2.50;99.90;;;;;;6177745;28;20054;-77
2021/01/17 12:30:26;;;;;;;51.57;28.00;;;2.60;99.90;;;;;;6175581;28;20171;-77
2021/01/17 12:33:27;;;;;;;29.07;19.17;;;2.50;99.90;;;;;;6175269;28;20059;-78
2021/01/17 12:36:30;;;;;;;26.60;16.67;;;2.50;99.90;;;;;;6175572;28;20054;-77
2021/01/17 12:39:31;;;;;;;24.87;17.40;;;2.50;99.90;;;;;;6173550;28;20074;-77
2021/01/17 12:42:34;;;;;;;20.97;13.70;;;2.40;99.90;;;;;;6167163;28;20121;-76
2021/01/17 12:45:35;;;;;;;49.17;29.83;;;2.40;99.90;;;;;;6168314;28;20051;-76
2021/01/17 12:48:38;;;;;;;29.53;18.20;;;2.40;99.90;;;;;;6176355;28;20643;-77
2021/01/17 12:51:39;;;;;;;26.73;17.67;;;2.40;99.90;;;;;;6176381;28;20110;-77
2021/01/17 12:54:41;;;;;;;52.67;28.57;;;2.30;99.90;;;;;;6177337;28;20082;-76
2021/01/17 12:57:43;;;;;;;24.87;15.10;;;2.30;99.90;;;;;;6170661;28;20055;-77
2021/01/17 13:00:44;;;;;;;23.87;16.43;;;2.30;99.90;;;;;;6172417;28;20130;-76
2021/01/17 13:03:45;;;;;;;24.37;16.03;;;2.30;99.90;;;;;;6167328;28;20050;-77
2021/01/17 13:06:47;;;;;;;25.83;18.03;;;2.30;99.90;;;;;;6175793;28;20047;-76
2021/01/17 13:09:48;;;;;;;26.33;16.57;;;2.30;99.90;;;;;;6169994;28;20142;-76
2021/01/17 13:12:50;;;;;;;26.73;16.40;;;2.20;99.90;;;;;;6172757;28;20137;-76
2021/01/17 13:15:56;;;;;;;23.90;15.90;;;2.30;99.90;;;;;;6177905;28;20067;-76
2021/01/17 13:19:00;;;;;;;24.73;15.32;;;2.30;99.90;;;;;;6162405;28;20057;-75
2021/01/17 13:22:01;;;;;;;28.57;18.30;;;2.30;99.90;;;;;;6176391;28;20587;-75
2021/01/17 13:25:05;;;;;;;27.47;17.90;;;2.20;99.90;;;;;;6175040;28;20561;-76
2021/01/17 13:28:08;;;;;;;26.93;14.70;;;2.20;99.90;;;;;;6178695;28;20051;-75
2021/01/17 13:31:09;;;;;;;25.90;16.87;;;2.30;99.90;;;;;;6174600;28;20138;-76
2021/01/17 13:34:11;;;;;;;24.00;15.53;;;2.20;99.90;;;;;;6175356;28;20061;-76
2021/01/17 13:37:18;;;;;;;25.63;14.77;;;2.30;99.90;;;;;;6176317;28;20089;-76
2021/01/17 13:40:20;;;;;;;26.20;17.70;;;2.30;99.90;;;;;;6168261;28;20055;-76
2021/01/17 13:43:22;;;;;;;24.13;15.77;;;2.30;99.90;;;;;;6171466;28;20094;-75
2021/01/17 13:46:24;;;;;;;28.37;19.07;;;2.30;99.90;;;;;;6169728;28;20536;-75
2021/01/17 13:49:25;;;;;;;25.70;18.17;;;2.40;99.90;;;;;;6173396;28;20571;-75
2021/01/17 13:52:27;;;;;;;27.20;17.90;;;2.40;99.90;;;;;;6162684;28;20040;-76
2021/01/17 13:55:29;;;;;;;29.47;17.67;;;2.40;99.90;;;;;;6167795;28;20063;-77
2021/01/17 13:58:31;;;;;;;22.47;16.30;;;2.40;99.90;;;;;;6168971;28;20121;-77
2021/01/17 14:01:36;;;;;;;26.70;17.07;;;2.40;99.90;;;;;;6166557;28;20090;-77
2021/01/17 14:04:37;;;;;;;27.23;17.47;;;2.30;99.90;;;;;;6162285;28;20138;-76
2021/01/17 14:07:39;;;;;;;25.83;16.67;;;2.30;99.90;;;;;;6170202;28;20160;-76
2021/01/17 14:10:41;;;;;;;21.93;14.83;;;2.30;99.90;;;;;;6190054;22;20190;-79
2021/01/17 14:13:43;;;;;;;25.07;15.90;;;2.40;99.90;;;;;;6176154;28;20059;-79
2021/01/17 14:16:46;;;;;;;24.90;14.30;;;2.30;99.90;;;;;;6177602;28;20300;-78
2021/01/17 14:19:47;;;;;;;21.73;15.20;;;2.30;99.90;;;;;;6181582;28;20054;-78
2021/01/17 14:22:49;;;;;;;24.27;16.17;;;2.30;99.90;;;;;;6169211;28;20332;-78
2021/01/17 14:25:50;;;;;;;25.07;17.13;;;2.40;99.90;;;;;;6166188;28;20552;-77
2021/01/17 14:28:53;;;;;;;25.63;16.60;;;2.40;99.90;;;;;;6167426;28;20062;-77
2021/01/17 14:31:54;;;;;;;26.73;15.33;;;2.40;99.90;;;;;;6150566;28;20070;-77
2021/01/17 14:34:56;;;;;;;29.73;16.27;;;2.40;99.90;;;;;;6155394;28;20134;-77
2021/01/17 14:37:57;;;;;;;27.57;16.20;;;2.40;99.90;;;;;;6154321;28;20047;-77
2021/01/17 14:40:59;;;;;;;26.00;15.10;;;2.40;99.90;;;;;;6163326;28;20090;-77
2021/01/17 14:44:01;;;;;;;26.63;16.43;;;2.40;99.90;;;;;;6157399;28;20054;-77
2021/01/17 14:47:03;;;;;;;29.27;17.40;;;2.40;99.90;;;;;;6154843;28;20047;-77
2021/01/17 14:50:06;;;;;;;29.47;18.27;;;2.40;99.90;;;;;;6161114;28;20165;-77
2021/01/17 14:53:07;;;;;;;22.60;16.90;;;2.40;99.90;;;;;;6164511;28;20126;-77
2021/01/17 14:56:08;;;;;;;27.10;18.13;;;2.40;99.90;;;;;;6157016;28;20097;-77
2021/01/17 14:59:14;;;;;;;29.87;19.20;;;2.40;99.90;;;;;;6165472;28;20141;-77
2021/01/17 15:02:16;;;;;;;32.63;20.07;;;2.30;99.90;;;;;;6162305;28;20492;-78
2021/01/17 15:05:17;;;;;;;31.13;19.83;;;2.30;99.90;;;;;;6165038;28;20050;-77
2021/01/17 15:08:18;;;;;;;28.93;18.13;;;2.30;99.90;;;;;;6166332;28;20045;-77
2021/01/17 15:11:20;;;;;;;33.23;19.40;;;2.30;99.90;;;;;;6166357;28;20070;-78
2021/01/17 15:14:22;;;;;;;35.07;20.87;;;2.30;99.90;;;;;;6173370;28;20165;-78
2021/01/17 15:17:24;;;;;;;29.50;20.20;;;2.30;99.90;;;;;;6169530;28;20096;-77
2021/01/17 15:20:25;;;;;;;35.80;22.27;;;2.30;99.90;;;;;;6163526;28;20050;-78
2021/01/17 15:23:26;;;;;;;29.70;19.33;;;2.30;99.90;;;;;;6146840;28;20118;-78
2021/01/17 15:26:28;;;;;;;37.00;24.63;;;2.30;99.90;;;;;;6157316;28;20139;-78
2021/01/17 15:29:30;;;;;;;41.37;25.27;;;2.30;99.90;;;;;;6165218;28;20117;-77
2021/01/17 15:32:31;;;;;;;30.80;21.33;;;2.40;99.90;;;;;;6152564;29;20131;-78
2021/01/17 15:35:33;;;;;;;41.87;23.53;;;2.30;99.90;;;;;;6172912;28;20130;-78
2021/01/17 15:38:36;;;;;;;37.80;21.03;;;2.40;99.90;;;;;;6165642;28;20054;-78
2021/01/17 15:41:37;;;;;;;40.13;22.27;;;2.30;99.90;;;;;;6163186;28;20051;-78
2021/01/17 15:44:39;;;;;;;35.17;22.53;;;2.30;99.90;;;;;;6160758;28;20059;-78